LW69 weather

Dolneni Airport
Dolneni, Pelagonia Statistical Region, Macedonia

Public forecast

Using degrees Celsius for public forecast. Weather courtesy of forecast.io.

METAR (pilot weather report)

Report is more than 6 hours old.

Closest report is Ohrid St. Paul the Apostle Airport, 33.3 nm (61.7 km) WSW. Retrieved 2019/02/20 15:00 UTC (11 hours ago):

LWOH 201500Z 15004KT 9999 FEW050 10/M01 Q1020

TAF (pilot weather forecast)

Forecast is more than 12 hours old.

Closest forecast is Ohrid St. Paul the Apostle Airport, 33.3 nm (61.7 km) WSW. Retrieved 2019/02/20 00:53 UTC (1 day ago):

TAF LWOH 202330Z 2100/2124 VRB02KT CAVOK